Time,TemperatureF,DewpointF,PressureIn,WindDirection,WindDirectionDegrees,WindSpeedMPH,WindSpeedGustMPH,Humidity,HourlyPrecipIn,Conditions,Clouds,dailyrainin,SolarRadiationWatts/m^2,SoftwareType,DateUTC
2013-02-09 00:09:00,18.8,18.0,29.73,ENE,71,3.0,16.0,95,0.00,,,0.00,0,weatherlink.com 1.10,2013-02-09 05:09:00,
2013-02-09 00:25:00,18.8,18.0,29.74,North,350,10.0,14.0,95,0.00,,,0.00,0,weatherlink.com 1.10,2013-02-09 05:25:00,
2013-02-09 00:41:00,18.7,18.0,29.74,NNW,331,7.0,17.0,95,0.00,,,0.00,0,weatherlink.com 1.10,2013-02-09 05:41:00,
2013-02-09 00:56:00,18.6,17.0,29.74,North,9,13.0,18.0,95,0.00,,,0.00,0,weatherlink.com 1.10,2013-02-09 05:56:00,
2013-02-09 01:13:00,18.7,18.0,29.73,NW,321,14.0,17.0,95,0.00,,,0.00,0,weatherlink.com 1.10,2013-02-09 06:13:00,
2013-02-09 01:29:00,18.6,17.0,29.73,NW,320,3.0,16.0,95,0.00,,,0.00,0,weatherlink.com 1.10,2013-02-09 06:29:00,
2013-02-09 01:45:00,18.8,18.0,29.74,NW,312,10.0,22.0,95,0.00,,,0.00,0,weatherlink.com 1.10,2013-02-09 06:45:00,
2013-02-09 02:01:00,18.9,18.0,29.74,NNW,334,14.0,16.0,95,0.00,,,0.00,0,weatherlink.com 1.10,2013-02-09 07:01:00,
2013-02-09 02:17:00,19.1,18.0,29.73,NNE,15,10.0,14.0,95,0.00,,,0.00,0,weatherlink.com 1.10,2013-02-09 07:17:00,
2013-02-09 02:33:00,19.5,18.0,29.73,NW,317,5.0,21.0,95,0.00,,,0.00,0,weatherlink.com 1.10,2013-02-09 07:33:00,
2013-02-09 02:49:00,19.6,18.0,29.74,NNW,336,8.0,17.0,95,0.00,,,0.00,0,weatherlink.com 1.10,2013-02-09 07:49:00,
2013-02-09 03:05:00,19.7,19.0,29.74,NNE,25,6.0,20.0,95,0.00,,,0.00,0,weatherlink.com 1.10,2013-02-09 08:05:00,
2013-02-09 03:21:00,19.8,19.0,29.74,NNW,334,3.0,17.0,95,0.00,,,0.00,0,weatherlink.com 1.10,2013-02-09 08:21:00,
2013-02-09 03:38:00,20.0,19.0,29.74,North,5,10.0,24.0,95,0.00,,,0.00,0,weatherlink.com 1.10,2013-02-09 08:38:00,
2013-02-09 03:54:00,20.2,19.0,29.74,NW,321,6.0,24.0,95,0.00,,,0.00,0,weatherlink.com 1.10,2013-02-09 08:54:00,
2013-02-09 04:09:00,20.2,19.0,29.75,North,350,11.0,20.0,95,0.00,,,0.00,0,weatherlink.com 1.10,2013-02-09 09:09:00,
2013-02-09 04:26:00,20.1,19.0,29.75,North,355,10.0,24.0,95,0.00,,,0.00,0,weatherlink.com 1.10,2013-02-09 09:26:00,
2013-02-09 04:42:00,19.8,19.0,29.75,NNW,329,9.0,25.0,95,0.00,,,0.00,0,weatherlink.com 1.10,2013-02-09 09:42:00,
2013-02-09 04:58:00,19.5,18.0,29.75,NNE,20,9.0,21.0,95,0.00,,,0.00,0,weatherlink.com 1.10,2013-02-09 09:58:00,
2013-02-09 05:14:00,19.2,18.0,29.76,NNW,347,13.0,20.0,94,0.00,,,0.00,0,weatherlink.com 1.10,2013-02-09 10:14:00,
2013-02-09 05:30:00,18.9,18.0,29.77,NNW,342,8.0,19.0,94,0.00,,,0.00,0,weatherlink.com 1.10,2013-02-09 10:30:00,
2013-02-09 05:45:00,18.5,17.0,29.77,NNW,331,5.0,19.0,94,0.00,,,0.00,0,weatherlink.com 1.10,2013-02-09 10:45:00,
2013-02-09 06:02:00,18.1,17.0,29.77,NNW,333,7.0,24.0,94,0.00,,,0.00,0,weatherlink.com 1.10,2013-02-09 11:02:00,
2013-02-09 06:18:00,17.7,16.0,29.78,NW,313,9.0,21.0,93,0.00,,,0.00,0,weatherlink.com 1.10,2013-02-09 11:18:00,
2013-02-09 06:34:00,17.3,16.0,29.79,NNW,336,20.0,26.0,93,0.00,,,0.00,0,weatherlink.com 1.10,2013-02-09 11:34:00,
2013-02-09 06:51:00,17.0,15.0,29.80,NNW,343,9.0,22.0,92,0.00,,,0.00,0,weatherlink.com 1.10,2013-02-09 11:51:00,
2013-02-09 07:06:00,16.7,15.0,29.80,NNW,329,7.0,18.0,92,0.00,,,0.00,0,weatherlink.com 1.10,2013-02-09 12:06:00,
2013-02-09 07:22:00,16.6,15.0,29.81,NNW,331,19.0,21.0,92,0.00,,,0.00,14,weatherlink.com 1.10,2013-02-09 12:22:00,
2013-02-09 07:38:00,16.4,14.0,29.83,NNW,343,12.0,23.0,91,0.00,,,0.00,28,weatherlink.com 1.10,2013-02-09 12:38:00,
2013-02-09 07:54:00,16.3,14.0,29.84,NNW,333,6.0,24.0,90,0.00,,,0.00,46,weatherlink.com 1.10,2013-02-09 12:54:00,
2013-02-09 08:10:00,16.2,14.0,29.85,WNW,300,16.0,26.0,90,0.00,,,0.00,62,weatherlink.com 1.10,2013-02-09 13:10:00,
2013-02-09 08:27:00,16.3,14.0,29.85,NW,322,8.0,23.0,90,0.00,,,0.00,76,weatherlink.com 1.10,2013-02-09 13:27:00,
2013-02-09 08:43:00,16.6,14.0,29.87,NNW,347,9.0,33.0,89,0.00,,,0.00,91,weatherlink.com 1.10,2013-02-09 13:43:00,
2013-02-09 08:59:00,16.7,14.0,29.88,NW,305,15.0,31.0,89,0.00,,,0.00,120,weatherlink.com 1.10,2013-02-09 13:59:00,
2013-02-09 09:16:00,16.9,14.0,29.89,North,5,20.0,30.0,88,0.00,,,0.00,156,weatherlink.com 1.10,2013-02-09 14:16:00,
2013-02-09 09:31:00,17.3,14.0,29.89,NNW,336,13.0,29.0,88,0.00,,,0.00,199,weatherlink.com 1.10,2013-02-09 14:31:00,
2013-02-09 09:47:00,17.1,14.0,29.90,NNW,344,13.0,36.0,88,0.00,,,0.00,237,weatherlink.com 1.10,2013-02-09 14:47:00,
2013-02-09 10:03:00,17.2,14.0,29.91,North,355,13.0,33.0,88,0.00,,,0.00,285,weatherlink.com 1.10,2013-02-09 15:03:00,
2013-02-09 10:19:00,17.4,14.0,29.91,NNE,32,16.0,32.0,87,0.00,,,0.00,359,weatherlink.com 1.10,2013-02-09 15:19:00,
2013-02-09 10:36:00,17.3,14.0,29.92,North,360,16.0,27.0,87,0.00,,,0.00,369,weatherlink.com 1.10,2013-02-09 15:36:00,
2013-02-09 10:52:00,18.1,15.0,29.91,NNW,334,8.0,30.0,87,0.00,,,0.00,413,weatherlink.com 1.10,2013-02-09 15:52:00,
2013-02-09 11:08:00,18.3,15.0,29.92,NNW,336,12.0,44.0,86,0.00,,,0.00,487,weatherlink.com 1.10,2013-02-09 16:08:00,
2013-02-09 11:23:00,18.6,15.0,29.93,North,360,18.0,29.0,86,0.00,,,0.00,381,weatherlink.com 1.10,2013-02-09 16:23:00,
2013-02-09 11:40:00,18.4,15.0,29.93,NNW,348,10.0,28.0,85,0.00,,,0.00,322,weatherlink.com 1.10,2013-02-09 16:40:00,
2013-02-09 11:56:00,18.1,14.0,29.94,NNE,21,5.0,29.0,84,0.00,,,0.00,269,weatherlink.com 1.10,2013-02-09 16:56:00,
2013-02-09 12:12:00,17.9,14.0,29.95,NW,321,7.0,28.0,85,0.00,,,0.00,327,weatherlink.com 1.10,2013-02-09 17:12:00,
2013-02-09 12:28:00,19.1,15.0,29.95,NNW,343,6.0,19.0,83,0.00,,,0.00,355,weatherlink.com 1.10,2013-02-09 17:28:00,
2013-02-09 12:44:00,19.3,14.0,29.96,NE,40,7.0,25.0,79,0.00,,,0.00,327,weatherlink.com 1.10,2013-02-09 17:44:00,
2013-02-09 13:00:00,18.8,13.0,29.96,NW,311,10.0,25.0,78,0.00,,,0.00,276,weatherlink.com 1.10,2013-02-09 18:00:00,
2013-02-09 13:15:00,20.2,14.0,29.96,NW,304,19.0,25.0,77,0.00,,,0.00,603,weatherlink.com 1.10,2013-02-09 18:15:00,
2013-02-09 13:32:00,20.9,14.0,29.96,North,355,6.0,20.0,75,0.00,,,0.00,448,weatherlink.com 1.10,2013-02-09 18:32:00,
2013-02-09 13:48:00,20.9,14.0,29.97,North,355,8.0,20.0,74,0.00,,,0.00,299,weatherlink.com 1.10,2013-02-09 18:48:00,
2013-02-09 14:04:00,20.8,14.0,29.98,North,360,10.0,21.0,74,0.00,,,0.00,65,weatherlink.com 1.10,2013-02-09 19:04:00,
2013-02-09 14:21:00,20.7,13.0,29.98,NNW,348,10.0,24.0,73,0.00,,,0.00,40,weatherlink.com 1.10,2013-02-09 19:21:00,
2013-02-09 14:37:00,21.2,13.0,30.00,North,355,6.0,28.0,71,0.00,,,0.00,39,weatherlink.com 1.10,2013-02-09 19:37:00,
2013-02-09 14:52:00,21.2,12.0,30.01,NW,324,5.0,31.0,67,0.00,,,0.00,67,weatherlink.com 1.10,2013-02-09 19:52:00,
2013-02-09 15:09:00,21.1,12.0,30.02,NNW,337,8.0,31.0,69,0.00,,,0.00,40,weatherlink.com 1.10,2013-02-09 20:09:00,
2013-02-09 15:24:00,21.2,12.0,30.03,NNW,340,10.0,27.0,67,0.00,,,0.00,62,weatherlink.com 1.10,2013-02-09 20:24:00,
2013-02-09 15:40:00,21.4,12.0,30.05,NNW,328,10.0,31.0,67,0.00,,,0.00,32,weatherlink.com 1.10,2013-02-09 20:40:00,
2013-02-09 15:57:00,21.5,12.0,30.05,North,5,10.0,24.0,66,0.00,,,0.00,30,weatherlink.com 1.10,2013-02-09 20:57:00,
2013-02-09 16:13:00,21.3,12.0,30.06,NNE,12,9.0,18.0,66,0.00,,,0.00,26,weatherlink.com 1.10,2013-02-09 21:13:00,
2013-02-09 16:28:00,21.3,11.0,30.07,North,355,6.0,26.0,65,0.00,,,0.00,23,weatherlink.com 1.10,2013-02-09 21:28:00,
2013-02-09 16:44:00,21.0,12.0,30.07,NNW,345,5.0,22.0,67,0.00,,,0.00,18,weatherlink.com 1.10,2013-02-09 21:44:00,
2013-02-09 17:01:00,20.5,11.0,30.09,North,10,11.0,22.0,67,0.00,,,0.00,12,weatherlink.com 1.10,2013-02-09 22:01:00,
2013-02-09 17:17:00,19.7,12.0,30.10,NNW,333,6.0,12.0,71,0.00,,,0.00,5,weatherlink.com 1.10,2013-02-09 22:17:00,
2013-02-09 17:33:00,19.1,11.0,30.12,NW,315,11.0,17.0,71,0.00,,,0.00,0,weatherlink.com 1.10,2013-02-09 22:33:00,
2013-02-09 17:50:00,18.4,11.0,30.14,NW,319,6.0,18.0,73,0.00,,,0.00,0,weatherlink.com 1.10,2013-02-09 22:50:00,
2013-02-09 18:06:00,18.4,10.0,30.14,North,355,14.0,20.0,71,0.00,,,0.00,0,weatherlink.com 1.10,2013-02-09 23:06:00,
2013-02-09 18:22:00,18.1,10.0,30.15,NNW,333,10.0,19.0,71,0.00,,,0.00,0,weatherlink.com 1.10,2013-02-09 23:22:00,
2013-02-09 18:37:00,18.1,10.0,30.16,NW,307,8.0,21.0,70,0.00,,,0.00,0,weatherlink.com 1.10,2013-02-09 23:37:00,
2013-02-09 18:54:00,17.9,9.0,30.17,North,5,4.0,25.0,69,0.00,,,0.00,0,weatherlink.com 1.10,2013-02-09 23:54:00,
2013-02-09 19:09:00,17.5,9.0,30.17,NNW,332,11.0,22.0,69,0.00,,,0.00,0,weatherlink.com 1.10,2013-02-10 00:09:00,
2013-02-09 19:26:00,17.2,9.0,30.18,North,9,15.0,24.0,69,0.00,,,0.00,0,weatherlink.com 1.10,2013-02-10 00:26:00,
2013-02-09 19:42:00,16.9,9.0,30.18,WNW,298,6.0,21.0,70,0.00,,,0.00,0,weatherlink.com 1.10,2013-02-10 00:42:00,
2013-02-09 19:58:00,16.4,8.0,30.20,NNW,345,13.0,20.0,69,0.00,,,0.00,0,weatherlink.com 1.10,2013-02-10 00:58:00,
2013-02-09 20:14:00,16.2,7.0,30.20,North,5,6.0,25.0,68,0.00,,,0.00,0,weatherlink.com 1.10,2013-02-10 01:14:00,
2013-02-09 20:29:00,15.7,6.0,30.21,NNW,342,10.0,19.0,66,0.00,,,0.00,0,weatherlink.com 1.10,2013-02-10 01:29:00,
2013-02-09 20:47:00,15.4,5.0,30.22,NW,322,7.0,19.0,64,0.00,,,0.00,0,weatherlink.com 1.10,2013-02-10 01:47:00,
2013-02-09 21:02:00,15.4,4.0,30.23,NE,41,3.0,17.0,62,0.00,,,0.00,0,weatherlink.com 1.10,2013-02-10 02:02:00,
2013-02-09 21:19:00,14.8,4.0,30.23,NNW,345,5.0,9.0,62,0.00,,,0.00,0,weatherlink.com 1.10,2013-02-10 02:19:00,
2013-02-09 21:34:00,14.7,3.0,30.24,North,349,6.0,13.0,61,0.00,,,0.00,0,weatherlink.com 1.10,2013-02-10 02:34:00,
2013-02-09 21:51:00,14.5,3.0,30.25,NW,321,7.0,13.0,60,0.00,,,0.00,0,weatherlink.com 1.10,2013-02-10 02:51:00,
2013-02-09 22:07:00,14.2,3.0,30.25,NNW,348,9.0,17.0,60,0.00,,,0.00,0,weatherlink.com 1.10,2013-02-10 03:07:00,
2013-02-09 22:23:00,14.0,2.0,30.26,NNW,348,9.0,18.0,59,0.00,,,0.00,0,weatherlink.com 1.10,2013-02-10 03:23:00,
2013-02-09 22:38:00,13.7,2.0,30.26,NW,305,12.0,18.0,59,0.00,,,0.00,0,weatherlink.com 1.10,2013-02-10 03:38:00,
2013-02-09 22:55:00,13.4,2.0,30.27,NNW,347,10.0,17.0,60,0.00,,,0.00,0,weatherlink.com 1.10,2013-02-10 03:55:00,
2013-02-09 23:11:00,12.9,2.0,30.28,NNW,341,5.0,15.0,62,0.00,,,0.00,0,weatherlink.com 1.10,2013-02-10 04:11:00,
2013-02-09 23:28:00,12.2,2.0,30.30,NW,321,5.0,14.0,63,0.00,,,0.00,0,weatherlink.com 1.10,2013-02-10 04:28:00,
2013-02-09 23:43:00,11.9,2.0,30.29,North,350,10.0,12.0,64,0.00,,,0.00,0,weatherlink.com 1.10,2013-02-10 04:43:00,
2013-02-09 23:59:00,11.6,2.0,30.30,West,276,5.0,11.0,66,0.00,,,0.00,0,weatherlink.com 1.10,2013-02-10 04:59:00,